sensor_id;sensor_type;location;lat;lon;timestamp;P1;durP1;ratioP1;P2;durP2;ratioP2
21034;SDS011;10676;50.848;3.272;2022-11-25T00:00:49;20.10;;;8.90;;
21034;SDS011;10676;50.848;3.272;2022-11-25T00:03:15;10.07;;;7.22;;
21034;SDS011;10676;50.848;3.272;2022-11-25T00:05:40;16.33;;;8.32;;
21034;SDS011;10676;50.848;3.272;2022-11-25T00:08:06;8.85;;;7.10;;
21034;SDS011;10676;50.848;3.272;2022-11-25T00:10:32;8.68;;;7.93;;
21034;SDS011;10676;50.848;3.272;2022-11-25T00:12:58;10.63;;;7.07;;
21034;SDS011;10676;50.848;3.272;2022-11-25T00:15:23;9.40;;;8.00;;
21034;SDS011;10676;50.848;3.272;2022-11-25T00:17:50;9.15;;;7.22;;
21034;SDS011;10676;50.848;3.272;2022-11-25T00:20:16;8.75;;;7.93;;
21034;SDS011;10676;50.848;3.272;2022-11-25T00:22:43;8.35;;;7.35;;
21034;SDS011;10676;50.848;3.272;2022-11-25T00:25:09;9.02;;;8.23;;
21034;SDS011;10676;50.848;3.272;2022-11-25T00:27:34;8.63;;;7.93;;
21034;SDS011;10676;50.848;3.272;2022-11-25T00:30:00;9.10;;;8.55;;
21034;SDS011;10676;50.848;3.272;2022-11-25T00:32:25;10.48;;;8.15;;
21034;SDS011;10676;50.848;3.272;2022-11-25T00:34:54;11.32;;;8.82;;
21034;SDS011;10676;50.848;3.272;2022-11-25T00:37:19;8.75;;;8.15;;
21034;SDS011;10676;50.848;3.272;2022-11-25T00:39:45;9.18;;;7.70;;
21034;SDS011;10676;50.848;3.272;2022-11-25T00:42:10;9.10;;;8.55;;
21034;SDS011;10676;50.848;3.272;2022-11-25T00:44:55;9.95;;;9.07;;
21034;SDS011;10676;50.848;3.272;2022-11-25T00:47:21;10.75;;;9.77;;
21034;SDS011;10676;50.848;3.272;2022-11-25T00:49:47;10.10;;;8.50;;
21034;SDS011;10676;50.848;3.272;2022-11-25T00:52:15;10.00;;;9.40;;
21034;SDS011;10676;50.848;3.272;2022-11-25T00:54:43;10.20;;;9.02;;
21034;SDS011;10676;50.848;3.272;2022-11-25T00:57:10;10.05;;;9.35;;
21034;SDS011;10676;50.848;3.272;2022-11-25T00:59:36;9.88;;;8.75;;
21034;SDS011;10676;50.848;3.272;2022-11-25T01:02:02;9.73;;;8.88;;
21034;SDS011;10676;50.848;3.272;2022-11-25T01:04:28;9.95;;;9.02;;
21034;SDS011;10676;50.848;3.272;2022-11-25T01:06:53;10.68;;;9.88;;
21034;SDS011;10676;50.848;3.272;2022-11-25T01:09:20;10.40;;;9.30;;
21034;SDS011;10676;50.848;3.272;2022-11-25T01:11:50;9.95;;;9.25;;
21034;SDS011;10676;50.848;3.272;2022-11-25T01:14:16;11.20;;;10.18;;
21034;SDS011;10676;50.848;3.272;2022-11-25T01:16:46;11.18;;;10.10;;
21034;SDS011;10676;50.848;3.272;2022-11-25T01:19:12;10.82;;;9.82;;
21034;SDS011;10676;50.848;3.272;2022-11-25T01:21:38;9.75;;;9.15;;
21034;SDS011;10676;50.848;3.272;2022-11-25T01:24:05;11.40;;;9.65;;
21034;SDS011;10676;50.848;3.272;2022-11-25T01:26:31;10.43;;;9.82;;
21034;SDS011;10676;50.848;3.272;2022-11-25T01:29:02;10.05;;;9.25;;
21034;SDS011;10676;50.848;3.272;2022-11-25T01:31:30;10.80;;;10.10;;
21034;SDS011;10676;50.848;3.272;2022-11-25T01:33:58;10.82;;;10.15;;
21034;SDS011;10676;50.848;3.272;2022-11-25T01:36:27;10.90;;;10.10;;
21034;SDS011;10676;50.848;3.272;2022-11-25T01:38:54;10.52;;;9.75;;
21034;SDS011;10676;50.848;3.272;2022-11-25T01:41:22;11.02;;;10.13;;
21034;SDS011;10676;50.848;3.272;2022-11-25T01:54:32;11.18;;;10.35;;
21034;SDS011;10676;50.848;3.272;2022-11-25T01:57:03;10.23;;;9.50;;
21034;SDS011;10676;50.848;3.272;2022-11-25T01:59:34;10.95;;;9.85;;
21034;SDS011;10676;50.848;3.272;2022-11-25T02:02:04;11.68;;;10.52;;
21034;SDS011;10676;50.848;3.272;2022-11-25T02:04:31;9.85;;;8.88;;
21034;SDS011;10676;50.848;3.272;2022-11-25T02:07:00;12.43;;;11.15;;
21034;SDS011;10676;50.848;3.272;2022-11-25T02:09:30;14.57;;;11.85;;
21034;SDS011;10676;50.848;3.272;2022-11-25T02:11:56;13.77;;;11.35;;
21034;SDS011;10676;50.848;3.272;2022-11-25T02:14:23;12.95;;;11.70;;
21034;SDS011;10676;50.848;3.272;2022-11-25T02:16:50;12.20;;;10.23;;
21034;SDS011;10676;50.848;3.272;2022-11-25T02:19:19;13.00;;;10.73;;
21034;SDS011;10676;50.848;3.272;2022-11-25T02:21:53;12.15;;;10.60;;
21034;SDS011;10676;50.848;3.272;2022-11-25T02:24:30;12.60;;;11.35;;
21034;SDS011;10676;50.848;3.272;2022-11-25T02:27:03;17.67;;;9.85;;
21034;SDS011;10676;50.848;3.272;2022-11-25T02:29:28;12.48;;;9.55;;
21034;SDS011;10676;50.848;3.272;2022-11-25T02:31:54;10.60;;;9.57;;
21034;SDS011;10676;50.848;3.272;2022-11-25T02:34:20;12.45;;;9.20;;
21034;SDS011;10676;50.848;3.272;2022-11-25T02:36:45;14.85;;;9.00;;
21034;SDS011;10676;50.848;3.272;2022-11-25T02:39:11;11.02;;;9.05;;
21034;SDS011;10676;50.848;3.272;2022-11-25T02:41:38;11.70;;;8.07;;
21034;SDS011;10676;50.848;3.272;2022-11-25T02:44:08;9.63;;;8.32;;
21034;SDS011;10676;50.848;3.272;2022-11-25T02:46:34;13.30;;;7.63;;
21034;SDS011;10676;50.848;3.272;2022-11-25T02:49:00;12.40;;;7.70;;
21034;SDS011;10676;50.848;3.272;2022-11-25T02:51:27;15.52;;;7.45;;
21034;SDS011;10676;50.848;3.272;2022-11-25T02:53:54;9.68;;;6.57;;
21034;SDS011;10676;50.848;3.272;2022-11-25T02:56:24;14.18;;;6.60;;
21034;SDS011;10676;50.848;3.272;2022-11-25T02:58:52;12.82;;;6.70;;
21034;SDS011;10676;50.848;3.272;2022-11-25T03:01:21;8.27;;;6.05;;
21034;SDS011;10676;50.848;3.272;2022-11-25T03:03:47;11.98;;;6.60;;
21034;SDS011;10676;50.848;3.272;2022-11-25T03:06:12;9.30;;;6.40;;
21034;SDS011;10676;50.848;3.272;2022-11-25T03:08:38;14.88;;;7.20;;
21034;SDS011;10676;50.848;3.272;2022-11-25T03:11:04;12.82;;;5.88;;
21034;SDS011;10676;50.848;3.272;2022-11-25T03:13:30;10.57;;;7.55;;
21034;SDS011;10676;50.848;3.272;2022-11-25T03:15:55;8.75;;;7.53;;
21034;SDS011;10676;50.848;3.272;2022-11-25T03:18:21;13.35;;;7.38;;
21034;SDS011;10676;50.848;3.272;2022-11-25T03:20:50;14.73;;;7.40;;
21034;SDS011;10676;50.848;3.272;2022-11-25T03:23:19;8.50;;;7.55;;
21034;SDS011;10676;50.848;3.272;2022-11-25T03:25:45;9.27;;;7.15;;
21034;SDS011;10676;50.848;3.272;2022-11-25T03:28:11;8.05;;;7.18;;
21034;SDS011;10676;50.848;3.272;2022-11-25T03:30:37;10.23;;;7.80;;
21034;SDS011;10676;50.848;3.272;2022-11-25T03:33:03;10.68;;;7.07;;
21034;SDS011;10676;50.848;3.272;2022-11-25T03:35:28;14.23;;;7.05;;
21034;SDS011;10676;50.848;3.272;2022-11-25T03:37:54;8.82;;;7.00;;
21034;SDS011;10676;50.848;3.272;2022-11-25T03:40:20;11.48;;;7.55;;
21034;SDS011;10676;50.848;3.272;2022-11-25T03:42:46;10.60;;;7.93;;
21034;SDS011;10676;50.848;3.272;2022-11-25T03:45:12;10.07;;;6.78;;
21034;SDS011;10676;50.848;3.272;2022-11-25T03:47:42;9.32;;;7.55;;
21034;SDS011;10676;50.848;3.272;2022-11-25T03:50:09;8.98;;;7.88;;
21034;SDS011;10676;50.848;3.272;2022-11-25T03:52:36;13.93;;;7.15;;
21034;SDS011;10676;50.848;3.272;2022-11-25T03:55:02;16.02;;;6.80;;
21034;SDS011;10676;50.848;3.272;2022-11-25T03:57:30;12.00;;;7.07;;
21034;SDS011;10676;50.848;3.272;2022-11-25T03:59:56;8.93;;;7.45;;
21034;SDS011;10676;50.848;3.272;2022-11-25T04:02:22;9.10;;;6.50;;
21034;SDS011;10676;50.848;3.272;2022-11-25T04:04:47;9.70;;;6.25;;
21034;SDS011;10676;50.848;3.272;2022-11-25T04:07:13;6.95;;;6.00;;
21034;SDS011;10676;50.848;3.272;2022-11-25T04:09:39;8.85;;;6.50;;
21034;SDS011;10676;50.848;3.272;2022-11-25T04:12:04;15.40;;;7.43;;
21034;SDS011;10676;50.848;3.272;2022-11-25T04:14:49;12.88;;;9.25;;
21034;SDS011;10676;50.848;3.272;2022-11-25T04:17:14;13.30;;;7.85;;
21034;SDS011;10676;50.848;3.272;2022-11-25T04:19:40;9.25;;;7.95;;
21034;SDS011;10676;50.848;3.272;2022-11-25T04:22:05;12.57;;;8.88;;
21034;SDS011;10676;50.848;3.272;2022-11-25T04:24:31;9.73;;;8.07;;
21034;SDS011;10676;50.848;3.272;2022-11-25T04:26:57;11.18;;;9.38;;
21034;SDS011;10676;50.848;3.272;2022-11-25T04:29:22;8.50;;;7.53;;
21034;SDS011;10676;50.848;3.272;2022-11-25T04:31:48;10.55;;;9.55;;
21034;SDS011;10676;50.848;3.272;2022-11-25T04:34:14;9.88;;;8.95;;
21034;SDS011;10676;50.848;3.272;2022-11-25T04:36:39;10.05;;;8.48;;
21034;SDS011;10676;50.848;3.272;2022-11-25T04:39:05;8.75;;;7.85;;
21034;SDS011;10676;50.848;3.272;2022-11-25T04:41:31;10.10;;;9.20;;
21034;SDS011;10676;50.848;3.272;2022-11-25T04:43:59;8.75;;;8.23;;
21034;SDS011;10676;50.848;3.272;2022-11-25T04:46:26;9.52;;;8.52;;
21034;SDS011;10676;50.848;3.272;2022-11-25T04:48:58;9.32;;;8.52;;
21034;SDS011;10676;50.848;3.272;2022-11-25T04:51:23;13.27;;;9.32;;
21034;SDS011;10676;50.848;3.272;2022-11-25T04:53:49;10.15;;;9.27;;
21034;SDS011;10676;50.848;3.272;2022-11-25T04:56:15;11.55;;;10.65;;
21034;SDS011;10676;50.848;3.272;2022-11-25T04:58:42;11.05;;;10.10;;
21034;SDS011;10676;50.848;3.272;2022-11-25T05:01:26;10.98;;;10.07;;
21034;SDS011;10676;50.848;3.272;2022-11-25T05:03:52;13.88;;;10.93;;
21034;SDS011;10676;50.848;3.272;2022-11-25T05:06:17;11.60;;;10.63;;
21034;SDS011;10676;50.848;3.272;2022-11-25T05:08:43;15.25;;;9.93;;
21034;SDS011;10676;50.848;3.272;2022-11-25T05:11:12;12.90;;;9.07;;
21034;SDS011;10676;50.848;3.272;2022-11-25T05:13:37;14.45;;;9.77;;
21034;SDS011;10676;50.848;3.272;2022-11-25T05:16:03;10.18;;;9.20;;
21034;SDS011;10676;50.848;3.272;2022-11-25T05:18:29;14.60;;;12.15;;
21034;SDS011;10676;50.848;3.272;2022-11-25T05:20:54;11.18;;;10.15;;
21034;SDS011;10676;50.848;3.272;2022-11-25T05:23:26;13.60;;;8.93;;
21034;SDS011;10676;50.848;3.272;2022-11-25T05:25:52;18.73;;;10.00;;
21034;SDS011;10676;50.848;3.272;2022-11-25T05:28:25;18.88;;;9.75;;
21034;SDS011;10676;50.848;3.272;2022-11-25T05:30:51;15.32;;;10.38;;
21034;SDS011;10676;50.848;3.272;2022-11-25T05:33:17;15.15;;;11.07;;
21034;SDS011;10676;50.848;3.272;2022-11-25T05:35:42;16.85;;;11.70;;
21034;SDS011;10676;50.848;3.272;2022-11-25T05:38:08;12.20;;;10.90;;
21034;SDS011;10676;50.848;3.272;2022-11-25T05:40:34;16.88;;;10.88;;
21034;SDS011;10676;50.848;3.272;2022-11-25T05:43:00;18.42;;;11.32;;
21034;SDS011;10676;50.848;3.272;2022-11-25T05:45:25;17.67;;;10.70;;
21034;SDS011;10676;50.848;3.272;2022-11-25T05:47:51;18.73;;;11.52;;
21034;SDS011;10676;50.848;3.272;2022-11-25T05:50:17;17.33;;;12.32;;
21034;SDS011;10676;50.848;3.272;2022-11-25T05:52:42;21.40;;;13.05;;
21034;SDS011;10676;50.848;3.272;2022-11-25T05:55:08;17.73;;;13.00;;
21034;SDS011;10676;50.848;3.272;2022-11-25T05:57:34;24.27;;;14.05;;
21034;SDS011;10676;50.848;3.272;2022-11-25T05:59:59;20.95;;;14.00;;
21034;SDS011;10676;50.848;3.272;2022-11-25T06:02:25;21.13;;;14.77;;
21034;SDS011;10676;50.848;3.272;2022-11-25T06:04:51;26.80;;;16.55;;
21034;SDS011;10676;50.848;3.272;2022-11-25T06:07:17;32.33;;;18.27;;
21034;SDS011;10676;50.848;3.272;2022-11-25T06:09:43;36.80;;;20.35;;
21034;SDS011;10676;50.848;3.272;2022-11-25T06:12:08;34.38;;;18.77;;
21034;SDS011;10676;50.848;3.272;2022-11-25T06:14:34;30.83;;;17.33;;
21034;SDS011;10676;50.848;3.272;2022-11-25T06:16:59;34.20;;;17.70;;
21034;SDS011;10676;50.848;3.272;2022-11-25T06:19:25;31.15;;;15.68;;
21034;SDS011;10676;50.848;3.272;2022-11-25T06:21:50;28.58;;;16.52;;
21034;SDS011;10676;50.848;3.272;2022-11-25T06:24:16;25.83;;;15.02;;
21034;SDS011;10676;50.848;3.272;2022-11-25T06:26:42;28.30;;;15.10;;
21034;SDS011;10676;50.848;3.272;2022-11-25T06:29:07;23.90;;;14.40;;
21034;SDS011;10676;50.848;3.272;2022-11-25T06:31:33;23.85;;;15.07;;
21034;SDS011;10676;50.848;3.272;2022-11-25T06:33:59;29.83;;;16.20;;
21034;SDS011;10676;50.848;3.272;2022-11-25T06:36:24;27.23;;;14.80;;
21034;SDS011;10676;50.848;3.272;2022-11-25T06:38:51;24.00;;;14.75;;
21034;SDS011;10676;50.848;3.272;2022-11-25T06:41:18;31.77;;;17.30;;
21034;SDS011;10676;50.848;3.272;2022-11-25T06:43:45;36.58;;;19.02;;
21034;SDS011;10676;50.848;3.272;2022-11-25T06:46:11;38.40;;;20.35;;
21034;SDS011;10676;50.848;3.272;2022-11-25T06:48:39;49.10;;;24.02;;
21034;SDS011;10676;50.848;3.272;2022-11-25T06:51:05;63.38;;;30.75;;
21034;SDS011;10676;50.848;3.272;2022-11-25T06:53:35;30.52;;;17.42;;
21034;SDS011;10676;50.848;3.272;2022-11-25T06:56:12;29.75;;;15.82;;
21034;SDS011;10676;50.848;3.272;2022-11-25T06:58:41;11.15;;;8.65;;
21034;SDS011;10676;50.848;3.272;2022-11-25T07:01:40;10.52;;;8.65;;
21034;SDS011;10676;50.848;3.272;2022-11-25T07:04:00;16.75;;;10.43;;
21034;SDS011;10676;50.848;3.272;2022-11-25T07:06:27;15.35;;;8.38;;
21034;SDS011;10676;50.848;3.272;2022-11-25T07:08:54;27.77;;;10.32;;
21034;SDS011;10676;50.848;3.272;2022-11-25T07:13:49;17.25;;;9.00;;
21034;SDS011;10676;50.848;3.272;2022-11-25T07:16:16;18.65;;;9.45;;
21034;SDS011;10676;50.848;3.272;2022-11-25T07:18:42;22.52;;;9.68;;
21034;SDS011;10676;50.848;3.272;2022-11-25T07:23:35;22.08;;;10.80;;
21034;SDS011;10676;50.848;3.272;2022-11-25T07:26:02;17.20;;;10.82;;
21034;SDS011;10676;50.848;3.272;2022-11-25T07:28:39;19.92;;;10.52;;
21034;SDS011;10676;50.848;3.272;2022-11-25T07:31:06;13.80;;;10.48;;
21034;SDS011;10676;50.848;3.272;2022-11-25T07:33:37;19.40;;;11.77;;
21034;SDS011;10676;50.848;3.272;2022-11-25T07:36:04;17.85;;;11.68;;
21034;SDS011;10676;50.848;3.272;2022-11-25T07:38:31;15.13;;;9.35;;
21034;SDS011;10676;50.848;3.272;2022-11-25T07:43:34;17.58;;;10.07;;
21034;SDS011;10676;50.848;3.272;2022-11-25T07:46:34;17.58;;;10.43;;
21034;SDS011;10676;50.848;3.272;2022-11-25T07:48:54;13.88;;;10.48;;
21034;SDS011;10676;50.848;3.272;2022-11-25T07:51:22;19.02;;;10.48;;
21034;SDS011;10676;50.848;3.272;2022-11-25T07:53:53;33.38;;;11.82;;
21034;SDS011;10676;50.848;3.272;2022-11-25T07:56:20;26.73;;;10.45;;
21034;SDS011;10676;50.848;3.272;2022-11-25T07:58:46;19.73;;;10.30;;
21034;SDS011;10676;50.848;3.272;2022-11-25T08:01:12;24.10;;;10.52;;
21034;SDS011;10676;50.848;3.272;2022-11-25T08:03:39;16.67;;;10.18;;
21034;SDS011;10676;50.848;3.272;2022-11-25T08:06:07;19.95;;;9.18;;
21034;SDS011;10676;50.848;3.272;2022-11-25T08:08:37;20.98;;;10.45;;
21034;SDS011;10676;50.848;3.272;2022-11-25T08:11:05;15.20;;;10.70;;
21034;SDS011;10676;50.848;3.272;2022-11-25T08:13:32;20.45;;;10.00;;
21034;SDS011;10676;50.848;3.272;2022-11-25T08:15:58;26.40;;;9.38;;
21034;SDS011;10676;50.848;3.272;2022-11-25T08:18:24;18.88;;;10.38;;
21034;SDS011;10676;50.848;3.272;2022-11-25T08:20:50;19.60;;;10.05;;
21034;SDS011;10676;50.848;3.272;2022-11-25T08:23:15;25.88;;;9.68;;
21034;SDS011;10676;50.848;3.272;2022-11-25T08:25:41;23.02;;;9.77;;
21034;SDS011;10676;50.848;3.272;2022-11-25T08:28:07;17.13;;;10.30;;
21034;SDS011;10676;50.848;3.272;2022-11-25T08:30:33;17.60;;;10.60;;
21034;SDS011;10676;50.848;3.272;2022-11-25T08:32:59;16.48;;;9.90;;
21034;SDS011;10676;50.848;3.272;2022-11-25T08:35:25;22.88;;;10.60;;
21034;SDS011;10676;50.848;3.272;2022-11-25T08:37:51;21.17;;;10.15;;
21034;SDS011;10676;50.848;3.272;2022-11-25T08:40:17;25.60;;;10.10;;
21034;SDS011;10676;50.848;3.272;2022-11-25T08:42:43;23.00;;;9.82;;
21034;SDS011;10676;50.848;3.272;2022-11-25T08:45:09;21.02;;;10.43;;
21034;SDS011;10676;50.848;3.272;2022-11-25T08:47:35;14.95;;;9.10;;
21034;SDS011;10676;50.848;3.272;2022-11-25T08:50:01;24.95;;;9.05;;
21034;SDS011;10676;50.848;3.272;2022-11-25T08:52:29;18.40;;;8.02;;
21034;SDS011;10676;50.848;3.272;2022-11-25T08:54:56;22.75;;;8.98;;
21034;SDS011;10676;50.848;3.272;2022-11-25T08:57:22;13.63;;;8.63;;
21034;SDS011;10676;50.848;3.272;2022-11-25T08:59:47;19.35;;;8.82;;
21034;SDS011;10676;50.848;3.272;2022-11-25T09:02:14;17.65;;;9.20;;
21034;SDS011;10676;50.848;3.272;2022-11-25T09:04:41;17.90;;;8.52;;
21034;SDS011;10676;50.848;3.272;2022-11-25T09:07:08;13.75;;;8.35;;
21034;SDS011;10676;50.848;3.272;2022-11-25T09:09:33;23.25;;;10.48;;
21034;SDS011;10676;50.848;3.272;2022-11-25T09:11:59;22.48;;;11.43;;
21034;SDS011;10676;50.848;3.272;2022-11-25T09:14:24;21.42;;;9.60;;
21034;SDS011;10676;50.848;3.272;2022-11-25T09:16:50;19.90;;;10.02;;
21034;SDS011;10676;50.848;3.272;2022-11-25T09:19:16;18.77;;;9.27;;
21034;SDS011;10676;50.848;3.272;2022-11-25T09:21:42;19.52;;;9.10;;
21034;SDS011;10676;50.848;3.272;2022-11-25T09:24:08;18.75;;;6.10;;
21034;SDS011;10676;50.848;3.272;2022-11-25T09:26:34;20.33;;;6.07;;
21034;SDS011;10676;50.848;3.272;2022-11-25T09:29:03;12.52;;;6.28;;
21034;SDS011;10676;50.848;3.272;2022-11-25T09:31:29;16.35;;;6.50;;
21034;SDS011;10676;50.848;3.272;2022-11-25T09:33:55;17.80;;;6.35;;
21034;SDS011;10676;50.848;3.272;2022-11-25T09:36:21;19.67;;;6.55;;
21034;SDS011;10676;50.848;3.272;2022-11-25T09:38:47;21.85;;;7.50;;
21034;SDS011;10676;50.848;3.272;2022-11-25T09:44:30;17.83;;;7.07;;
21034;SDS011;10676;50.848;3.272;2022-11-25T09:53:43;18.77;;;8.23;;
21034;SDS011;10676;50.848;3.272;2022-11-25T09:56:35;12.00;;;6.55;;
21034;SDS011;10676;50.848;3.272;2022-11-25T09:59:10;17.77;;;8.68;;
21034;SDS011;10676;50.848;3.272;2022-11-25T10:04:20;20.65;;;7.45;;
21034;SDS011;10676;50.848;3.272;2022-11-25T10:06:55;12.30;;;6.45;;
21034;SDS011;10676;50.848;3.272;2022-11-25T10:09:27;15.23;;;5.80;;
21034;SDS011;10676;50.848;3.272;2022-11-25T10:11:56;17.45;;;6.38;;
21034;SDS011;10676;50.848;3.272;2022-11-25T10:14:44;11.48;;;6.80;;
21034;SDS011;10676;50.848;3.272;2022-11-25T10:20:04;15.18;;;6.75;;
21034;SDS011;10676;50.848;3.272;2022-11-25T10:22:58;14.68;;;6.72;;
21034;SDS011;10676;50.848;3.272;2022-11-25T10:25:30;10.93;;;6.47;;
21034;SDS011;10676;50.848;3.272;2022-11-25T10:28:18;14.10;;;5.70;;
21034;SDS011;10676;50.848;3.272;2022-11-25T10:33:21;14.55;;;6.15;;
21034;SDS011;10676;50.848;3.272;2022-11-25T10:38:37;13.30;;;6.60;;
21034;SDS011;10676;50.848;3.272;2022-11-25T10:41:15;9.95;;;6.57;;
21034;SDS011;10676;50.848;3.272;2022-11-25T10:43:44;16.60;;;7.40;;
21034;SDS011;10676;50.848;3.272;2022-11-25T10:48:52;19.20;;;8.20;;
21034;SDS011;10676;50.848;3.272;2022-11-25T10:51:46;14.73;;;7.35;;
21034;SDS011;10676;50.848;3.272;2022-11-25T10:54:17;12.55;;;6.85;;
21034;SDS011;10676;50.848;3.272;2022-11-25T10:56:54;13.02;;;6.90;;
21034;SDS011;10676;50.848;3.272;2022-11-25T11:02:03;18.58;;;7.50;;
21034;SDS011;10676;50.848;3.272;2022-11-25T11:04:36;13.13;;;7.32;;
21034;SDS011;10676;50.848;3.272;2022-11-25T11:07:15;15.35;;;7.60;;
21034;SDS011;10676;50.848;3.272;2022-11-25T11:09:42;15.82;;;6.90;;
21034;SDS011;10676;50.848;3.272;2022-11-25T11:12:22;20.45;;;8.95;;
21034;SDS011;10676;50.848;3.272;2022-11-25T11:14:50;14.60;;;7.57;;
21034;SDS011;10676;50.848;3.272;2022-11-25T11:20:01;12.68;;;8.35;;
21034;SDS011;10676;50.848;3.272;2022-11-25T11:22:30;13.77;;;8.43;;
21034;SDS011;10676;50.848;3.272;2022-11-25T11:27:54;13.35;;;8.00;;
21034;SDS011;10676;50.848;3.272;2022-11-25T11:30:21;15.65;;;9.25;;
21034;SDS011;10676;50.848;3.272;2022-11-25T11:35:58;13.73;;;9.80;;
21034;SDS011;10676;50.848;3.272;2022-11-25T11:38:32;14.00;;;9.80;;
21034;SDS011;10676;50.848;3.272;2022-11-25T11:49:19;16.52;;;14.27;;
21034;SDS011;10676;50.848;3.272;2022-11-25T11:54:53;18.88;;;13.63;;
21034;SDS011;10676;50.848;3.272;2022-11-25T12:00:07;17.52;;;15.02;;
21034;SDS011;10676;50.848;3.272;2022-11-25T12:02:48;17.77;;;15.23;;
21034;SDS011;10676;50.848;3.272;2022-11-25T12:05:28;20.92;;;16.63;;
21034;SDS011;10676;50.848;3.272;2022-11-25T12:08:12;19.45;;;13.52;;
21034;SDS011;10676;50.848;3.272;2022-11-25T12:10:59;22.92;;;13.98;;
21034;SDS011;10676;50.848;3.272;2022-11-25T12:16:11;23.65;;;13.68;;
21034;SDS011;10676;50.848;3.272;2022-11-25T12:18:40;19.52;;;11.65;;
21034;SDS011;10676;50.848;3.272;2022-11-25T12:27:14;17.70;;;11.02;;
21034;SDS011;10676;50.848;3.272;2022-11-25T12:37:37;19.98;;;11.82;;
21034;SDS011;10676;50.848;3.272;2022-11-25T12:40:13;24.20;;;12.43;;
21034;SDS011;10676;50.848;3.272;2022-11-25T12:42:42;22.27;;;15.82;;
21034;SDS011;10676;50.848;3.272;2022-11-25T12:45:14;21.45;;;18.85;;
21034;SDS011;10676;50.848;3.272;2022-11-25T12:47:44;21.90;;;14.32;;
21034;SDS011;10676;50.848;3.272;2022-11-25T12:50:15;17.58;;;12.93;;
21034;SDS011;10676;50.848;3.272;2022-11-25T12:52:53;21.13;;;14.05;;
21034;SDS011;10676;50.848;3.272;2022-11-25T12:55:35;21.52;;;16.33;;
21034;SDS011;10676;50.848;3.272;2022-11-25T13:01:28;18.20;;;13.07;;
21034;SDS011;10676;50.848;3.272;2022-11-25T13:06:33;16.52;;;14.63;;
21034;SDS011;10676;50.848;3.272;2022-11-25T13:12:11;19.38;;;14.55;;
21034;SDS011;10676;50.848;3.272;2022-11-25T13:15:11;21.65;;;14.60;;
21034;SDS011;10676;50.848;3.272;2022-11-25T13:17:50;16.60;;;13.88;;
21034;SDS011;10676;50.848;3.272;2022-11-25T13:23:00;20.08;;;12.10;;
21034;SDS011;10676;50.848;3.272;2022-11-25T13:25:26;15.85;;;14.00;;
21034;SDS011;10676;50.848;3.272;2022-11-25T13:32:57;16.63;;;13.55;;
21034;SDS011;10676;50.848;3.272;2022-11-25T13:43:59;17.48;;;14.18;;
21034;SDS011;10676;50.848;3.272;2022-11-25T13:46:45;16.33;;;13.23;;
21034;SDS011;10676;50.848;3.272;2022-11-25T13:49:21;19.80;;;14.27;;
21034;SDS011;10676;50.848;3.272;2022-11-25T13:51:51;17.90;;;13.77;;
21034;SDS011;10676;50.848;3.272;2022-11-25T13:54:20;19.08;;;14.35;;
21034;SDS011;10676;50.848;3.272;2022-11-25T14:02:35;17.40;;;14.48;;
21034;SDS011;10676;50.848;3.272;2022-11-25T14:11:03;1999.90;;;999.90;;
21034;SDS011;10676;50.848;3.272;2022-11-25T14:24:45;1999.90;;;999.90;;
21034;SDS011;10676;50.848;3.272;2022-11-25T14:27:24;1999.90;;;999.90;;
21034;SDS011;10676;50.848;3.272;2022-11-25T14:29:53;1999.90;;;999.90;;
21034;SDS011;10676;50.848;3.272;2022-11-25T14:35:03;16.33;;;14.60;;
21034;SDS011;10676;50.848;3.272;2022-11-25T14:37:44;17.48;;;15.00;;
21034;SDS011;10676;50.848;3.272;2022-11-25T14:40:26;17.33;;;14.50;;
21034;SDS011;10676;50.848;3.272;2022-11-25T14:43:02;17.83;;;13.95;;
21034;SDS011;10676;50.848;3.272;2022-11-25T14:45:32;15.95;;;14.63;;
21034;SDS011;10676;50.848;3.272;2022-11-25T14:48:11;20.98;;;14.68;;
21034;SDS011;10676;50.848;3.272;2022-11-25T14:50:38;18.50;;;14.73;;
21034;SDS011;10676;50.848;3.272;2022-11-25T14:53:08;17.05;;;15.35;;
21034;SDS011;10676;50.848;3.272;2022-11-25T14:55:35;21.85;;;17.23;;
21034;SDS011;10676;50.848;3.272;2022-11-25T14:58:02;16.60;;;14.85;;
21034;SDS011;10676;50.848;3.272;2022-11-25T15:00:28;18.77;;;14.15;;
21034;SDS011;10676;50.848;3.272;2022-11-25T15:03:03;19.77;;;14.18;;
21034;SDS011;10676;50.848;3.272;2022-11-25T15:05:33;16.52;;;14.18;;
21034;SDS011;10676;50.848;3.272;2022-11-25T15:08:02;16.27;;;13.07;;
21034;SDS011;10676;50.848;3.272;2022-11-25T15:15:51;18.50;;;14.00;;
21034;SDS011;10676;50.848;3.272;2022-11-25T15:18:21;21.70;;;16.30;;
21034;SDS011;10676;50.848;3.272;2022-11-25T15:20:48;17.00;;;13.55;;
21034;SDS011;10676;50.848;3.272;2022-11-25T15:23:22;19.23;;;13.02;;
21034;SDS011;10676;50.848;3.272;2022-11-25T15:26:01;19.90;;;13.00;;
21034;SDS011;10676;50.848;3.272;2022-11-25T15:28:34;17.10;;;10.00;;
21034;SDS011;10676;50.848;3.272;2022-11-25T15:31:01;18.38;;;9.45;;
21034;SDS011;10676;50.848;3.272;2022-11-25T15:33:33;16.52;;;8.93;;
21034;SDS011;10676;50.848;3.272;2022-11-25T15:35:59;10.63;;;6.43;;
21034;SDS011;10676;50.848;3.272;2022-11-25T15:42:19;10.60;;;6.88;;
21034;SDS011;10676;50.848;3.272;2022-11-25T15:44:33;17.58;;;7.68;;
21034;SDS011;10676;50.848;3.272;2022-11-25T15:47:03;15.13;;;8.32;;
21034;SDS011;10676;50.848;3.272;2022-11-25T15:49:57;15.43;;;9.40;;
21034;SDS011;10676;50.848;3.272;2022-11-25T15:52:23;24.02;;;9.95;;
21034;SDS011;10676;50.848;3.272;2022-11-25T15:54:51;18.17;;;9.00;;
21034;SDS011;10676;50.848;3.272;2022-11-25T15:57:28;30.85;;;16.20;;
21034;SDS011;10676;50.848;3.272;2022-11-25T16:10:17;18.27;;;8.80;;
21034;SDS011;10676;50.848;3.272;2022-11-25T16:12:43;19.95;;;14.23;;
21034;SDS011;10676;50.848;3.272;2022-11-25T16:15:15;19.35;;;11.88;;
21034;SDS011;10676;50.848;3.272;2022-11-25T16:17:41;23.65;;;11.95;;
21034;SDS011;10676;50.848;3.272;2022-11-25T16:20:17;20.70;;;12.32;;
21034;SDS011;10676;50.848;3.272;2022-11-25T16:22:43;18.13;;;11.88;;
21034;SDS011;10676;50.848;3.272;2022-11-25T16:25:09;19.38;;;10.57;;
21034;SDS011;10676;50.848;3.272;2022-11-25T16:27:36;17.88;;;10.05;;
21034;SDS011;10676;50.848;3.272;2022-11-25T16:32:44;21.38;;;11.63;;
21034;SDS011;10676;50.848;3.272;2022-11-25T16:35:14;25.45;;;15.32;;
21034;SDS011;10676;50.848;3.272;2022-11-25T16:37:43;21.67;;;12.68;;
21034;SDS011;10676;50.848;3.272;2022-11-25T16:40:12;22.33;;;11.05;;
21034;SDS011;10676;50.848;3.272;2022-11-25T16:42:39;26.13;;;12.23;;
21034;SDS011;10676;50.848;3.272;2022-11-25T16:45:11;27.20;;;12.40;;
21034;SDS011;10676;50.848;3.272;2022-11-25T16:47:47;23.02;;;11.98;;
21034;SDS011;10676;50.848;3.272;2022-11-25T16:50:13;21.90;;;13.45;;
21034;SDS011;10676;50.848;3.272;2022-11-25T16:52:40;25.80;;;12.43;;
21034;SDS011;10676;50.848;3.272;2022-11-25T16:55:06;37.10;;;25.60;;
21034;SDS011;10676;50.848;3.272;2022-11-25T16:57:33;36.38;;;18.30;;
21034;SDS011;10676;50.848;3.272;2022-11-25T16:59:59;33.67;;;16.13;;
21034;SDS011;10676;50.848;3.272;2022-11-25T17:02:32;34.15;;;21.50;;
21034;SDS011;10676;50.848;3.272;2022-11-25T17:07:45;28.58;;;17.58;;
21034;SDS011;10676;50.848;3.272;2022-11-25T17:10:11;24.77;;;11.90;;
21034;SDS011;10676;50.848;3.272;2022-11-25T17:12:38;28.58;;;16.83;;
21034;SDS011;10676;50.848;3.272;2022-11-25T17:15:07;29.15;;;15.73;;
21034;SDS011;10676;50.848;3.272;2022-11-25T17:17:41;24.77;;;13.85;;